Time;durP1;ratioP1;P1;durP2;ratioP2;P2;SDS_P1;SDS_P2;PMS_P1;PMS_P2;Temp;Humidity;BMP_temperature;BMP_pressure;BME280_temperature;BME280_humidity;BME280_pressure;Samples;Min_cycle;Max_cycle;Signal;HPM_P1;HPM_P2
2023/01/09 00:02:22;;;;;;;10.80;6.68;;;;;;;5.62;100.00;99124.94;4974967;28;20042;-78
2023/01/09 00:04:47;;;;;;;12.13;6.43;;;;;;;5.59;100.00;99126.72;4975059;28;20042;-78
2023/01/09 00:07:12;;;;;;;12.55;6.60;;;;;;;5.57;100.00;99118.00;4970364;28;20133;-78
2023/01/09 00:09:38;;;;;;;12.20;6.57;;;;;;;5.49;100.00;99129.41;4974568;28;20046;-79
2023/01/09 00:12:03;;;;;;;12.85;6.35;;;;;;;5.42;100.00;99121.59;4974824;28;20042;-78
2023/01/09 00:14:29;;;;;;;11.20;6.00;;;;;;;5.35;100.00;99125.19;4974926;28;20046;-78
2023/01/09 00:16:54;;;;;;;13.05;6.32;;;;;;;5.34;100.00;99119.06;4974191;28;20031;-78
2023/01/09 00:19:20;;;;;;;13.95;7.13;;;;;;;5.30;100.00;99121.72;4974929;28;20034;-78
2023/01/09 00:21:45;;;;;;;11.80;6.30;;;;;;;5.25;100.00;99111.28;4974847;28;20043;-78
2023/01/09 00:24:10;;;;;;;13.52;7.03;;;;;;;5.21;100.00;99106.94;4974905;28;20110;-78
2023/01/09 00:26:36;;;;;;;12.30;6.32;;;;;;;5.20;100.00;99100.00;4973747;28;20037;-78
2023/01/09 00:29:03;;;;;;;13.55;6.03;;;;;;;5.16;100.00;99099.16;4973527;28;20038;-78
2023/01/09 00:31:28;;;;;;;13.18;7.05;;;;;;;5.14;100.00;99090.44;4974630;28;20050;-79
2023/01/09 00:33:58;;;;;;;12.95;6.88;;;;;;;5.14;100.00;99095.69;4974709;28;20035;-78
2023/01/09 00:36:24;;;;;;;13.73;7.25;;;;;;;5.14;100.00;99097.44;4971810;28;20035;-77
2023/01/09 00:38:49;;;;;;;14.93;7.45;;;;;;;5.12;100.00;99091.34;4972652;28;20100;-77
2023/01/09 00:41:21;;;;;;;18.63;8.82;;;;;;;5.16;100.00;99096.53;4981818;28;20038;-78
2023/01/09 00:43:50;;;;;;;12.60;7.40;;;;;;;5.20;100.00;99095.63;4970916;28;20561;-78
2023/01/09 00:46:17;;;;;;;14.35;7.10;;;;;;;5.23;100.00;99085.13;4973351;28;20057;-78
2023/01/09 00:48:46;;;;;;;16.40;8.00;;;;;;;5.29;100.00;99076.38;4974454;28;20114;-77
2023/01/09 00:51:12;;;;;;;13.27;6.80;;;;;;;5.26;100.00;99079.00;4974240;28;20047;-77
2023/01/09 00:53:40;;;;;;;14.73;7.55;;;;;;;5.31;100.00;99065.91;4974136;28;20043;-78
2023/01/09 00:56:08;;;;;;;14.23;6.93;;;;;;;5.33;100.00;99074.59;4973497;28;20125;-78
2023/01/09 00:58:34;;;;;;;14.60;7.32;;;;;;;5.32;100.00;99065.00;4973965;28;20041;-78
2023/01/09 01:01:00;;;;;;;13.25;6.82;;;;;;;5.33;100.00;99065.00;4974141;28;20031;-78
2023/01/09 01:03:25;;;;;;;13.77;7.50;;;;;;;5.35;100.00;99058.03;4973995;28;20045;-78
2023/01/09 01:08:35;;;;;;;13.02;6.75;;;;;;;5.44;100.00;99054.44;4974393;28;20047;-78
2023/01/09 01:11:05;;;;;;;12.80;6.57;;;;;;;5.47;100.00;99050.03;4973583;28;20049;-77
2023/01/09 01:13:31;;;;;;;14.10;7.00;;;;;;;5.49;100.00;99042.19;4974231;28;20050;-78
2023/01/09 01:15:56;;;;;;;12.68;7.68;;;;;;;5.52;100.00;99043.91;4979318;28;20046;-78
2023/01/09 01:18:21;;;;;;;15.70;7.53;;;;;;;5.53;100.00;99036.06;4974491;28;20047;-78
2023/01/09 01:20:47;;;;;;;14.70;7.10;;;;;;;5.54;100.00;99040.41;4974412;28;20030;-77
2023/01/09 01:23:12;;;;;;;12.23;6.55;;;;;;;5.56;100.00;99033.41;4973747;28;20478;-77
2023/01/09 01:25:39;;;;;;;12.90;6.20;;;;;;;5.55;100.00;99030.78;4973611;28;20485;-77
2023/01/09 01:28:05;;;;;;;16.65;7.10;;;;;;;5.49;100.00;99026.50;4973447;28;20394;-77
2023/01/09 01:30:31;;;;;;;16.00;7.45;;;;;;;5.47;100.00;99026.50;4972891;28;20085;-77
2023/01/09 01:32:56;;;;;;;18.10;7.38;;;;;;;5.46;100.00;99023.91;4972201;28;20042;-78
2023/01/09 01:35:21;;;;;;;14.25;6.78;;;;;;;5.45;100.00;99017.81;4972916;28;20034;-77
2023/01/09 01:37:48;;;;;;;14.35;7.28;;;;;;;5.44;100.00;99018.69;4969394;28;20114;-77
2023/01/09 01:40:14;;;;;;;15.18;7.95;;;;;;;5.45;100.00;99016.94;4973127;28;20478;-77
2023/01/09 01:42:48;;;;;;;15.73;7.60;;;;;;;5.42;100.00;99006.50;4973095;28;20532;-77
2023/01/09 01:45:18;;;;;;;12.32;6.43;;;;;;;5.36;100.00;99004.81;4973090;28;20130;-76
2023/01/09 01:48:06;;;;;;;12.77;7.32;;;;;;;5.33;100.00;99003.97;4968298;28;20039;-76
2023/01/09 01:50:41;;;;;;;13.82;6.78;;;;;;;5.26;100.00;99001.41;4973528;28;20066;-77
2023/01/09 01:53:25;;;;;;;14.93;7.78;;;;;;;5.23;100.00;99000.56;4973398;28;20027;-77
2023/01/09 01:56:23;;;;;;;11.02;5.72;;;;;;;5.17;100.00;98998.03;4969034;28;20038;-78
2023/01/09 01:59:03;;;;;;;13.93;7.15;;;;;;;5.11;100.00;98998.94;4972732;28;20545;-77
2023/01/09 02:01:29;;;;;;;15.20;7.78;;;;;;;5.05;100.00;98999.84;4972082;28;20178;-77
2023/01/09 02:03:57;;;;;;;11.75;6.28;;;;;;;5.05;100.00;98993.75;4974634;28;20038;-77
2023/01/09 02:06:24;;;;;;;16.95;9.85;;;;;;;5.02;100.00;98981.56;4970566;28;20031;-77
2023/01/09 02:08:49;;;;;;;22.73;8.95;;;;;;;5.01;100.00;98986.81;4974237;28;20026;-77
2023/01/09 02:11:17;;;;;;;12.63;5.88;;;;;;;5.02;100.00;98980.69;4974724;28;20069;-77
2023/01/09 02:13:42;;;;;;;11.88;7.03;;;;;;;5.03;100.00;98977.19;4974549;28;20102;-77
2023/01/09 02:16:29;;;;;;;15.55;7.28;;;;;;;5.09;100.00;98971.06;4973878;28;20078;-77
2023/01/09 02:19:22;;;;;;;14.48;6.20;;;;;;;5.18;100.00;98973.59;4971632;28;20567;-77
2023/01/09 02:22:06;;;;;;;14.73;7.93;;;;;;;5.32;100.00;98974.34;4972839;28;20034;-77
2023/01/09 02:25:10;;;;;;;16.08;8.02;;;;;;;5.47;100.00;98962.81;4970725;28;20035;-77
2023/01/09 02:28:03;;;;;;;18.20;8.65;;;;;;;5.60;100.00;98960.94;4972400;28;20129;-77
2023/01/09 02:30:30;;;;;;;;;;;;;;;5.69;100.00;98959.09;4973798;28;20131;-77
2023/01/09 02:33:21;;;;;;;15.38;8.63;;;;;;;5.77;100.00;98956.41;4974023;28;19918;-77
2023/01/09 02:35:53;;;;;;;13.15;6.63;;;;;;;5.87;100.00;98954.53;4958921;28;20138;-77
2023/01/09 02:38:34;;;;;;;18.73;8.07;;;;;;;5.89;100.00;98956.25;4969773;28;20398;-77
2023/01/09 02:41:37;;;;;;;15.48;7.97;;;;;;;5.98;100.00;98952.69;4970856;28;20065;-77
2023/01/09 02:44:15;;;;;;;16.58;8.15;;;;;;;6.04;100.00;98952.59;4972540;28;20054;-77
2023/01/09 02:46:41;;;;;;;15.35;7.40;;;;;;;6.07;100.00;98957.78;4970318;28;20055;-77
2023/01/09 02:49:07;;;;;;;14.27;6.88;;;;;;;6.09;100.00;98953.41;4973494;28;20031;-77
2023/01/09 02:51:39;;;;;;;13.95;7.10;;;;;;;6.11;100.00;98956.88;4972939;28;20042;-77
2023/01/09 02:54:39;;;;;;;14.13;7.35;;;;;;;6.13;100.00;98949.88;4969814;28;20034;-77
2023/01/09 02:57:20;;;;;;;14.45;7.07;;;;;;;6.15;100.00;98948.06;4971800;28;20115;-77
2023/01/09 03:00:06;;;;;;;13.15;7.03;;;;;;;6.19;100.00;98950.66;4969499;28;20407;-77
2023/01/09 03:02:51;;;;;;;13.50;6.80;;;;;;;6.26;100.00;98949.66;4971231;28;20070;-77
2023/01/09 03:05:23;;;;;;;13.30;6.18;;;;;;;6.29;100.00;98939.19;4972472;28;20398;-77
2023/01/09 03:07:58;;;;;;;12.50;6.53;;;;;;;6.33;100.00;98930.38;4968437;28;20050;-77
2023/01/09 03:10:42;;;;;;;13.60;6.60;;;;;;;6.39;100.00;98927.63;4972304;28;20565;-77
2023/01/09 03:13:10;;;;;;;15.10;7.55;;;;;;;6.45;100.00;98924.09;4971823;28;20494;-77
2023/01/09 03:15:40;;;;;;;16.55;6.82;;;;;;;6.50;100.00;98933.63;4971671;28;20410;-77
2023/01/09 03:18:09;;;;;;;12.43;6.82;;;;;;;6.57;100.00;98932.59;4972140;28;20038;-76
2023/01/09 03:20:36;;;;;;;14.27;7.25;;;;;;;6.62;100.00;98934.31;4971970;28;20038;-77
2023/01/09 03:23:04;;;;;;;14.65;7.10;;;;;;;6.66;100.00;98930.75;4972202;28;20110;-77
2023/01/09 03:25:30;;;;;;;14.48;7.03;;;;;;;6.70;100.00;98929.81;4971390;28;20053;-77
2023/01/09 03:28:01;;;;;;;12.73;6.43;;;;;;;6.74;100.00;98932.34;4971891;28;20039;-77
2023/01/09 03:30:28;;;;;;;12.47;6.80;;;;;;;6.75;100.00;98925.34;4972005;28;20034;-77
2023/01/09 03:32:54;;;;;;;14.80;7.05;;;;;;;6.77;100.00;98926.19;4971715;28;20513;-77
2023/01/09 03:35:20;;;;;;;15.57;7.32;;;;;;;6.80;100.00;98915.66;4973158;28;20066;-77
2023/01/09 03:37:45;;;;;;;14.02;6.53;;;;;;;6.84;100.00;98916.44;4971042;28;20030;-76
2023/01/09 03:40:10;;;;;;;13.95;6.95;;;;;;;6.85;100.00;98916.44;4974715;28;20489;-77
2023/01/09 03:42:36;;;;;;;12.52;6.35;;;;;;;6.90;100.00;98916.38;4975219;28;20397;-77
2023/01/09 03:45:01;;;;;;;15.55;6.82;;;;;;;6.91;100.00;98913.69;4975154;28;20047;-77
2023/01/09 03:47:26;;;;;;;12.30;6.93;;;;;;;6.97;100.00;98907.50;4974142;28;20045;-77
2023/01/09 03:49:52;;;;;;;11.85;6.57;;;;;;;6.99;100.00;98911.81;4975012;28;20022;-77
2023/01/09 03:52:17;;;;;;;16.00;6.47;;;;;;;7.05;100.00;98915.22;4974964;28;20109;-77
2023/01/09 03:54:42;;;;;;;12.90;7.13;;;;;;;7.08;100.00;98909.94;4975020;28;20034;-78
2023/01/09 03:57:08;;;;;;;15.55;7.75;;;;;;;7.05;100.00;98915.22;4974348;28;20039;-77
2023/01/09 03:59:33;;;;;;;12.00;7.00;;;;;;;7.06;100.00;98909.09;4974955;28;20031;-77
2023/01/09 04:01:58;;;;;;;12.35;6.82;;;;;;;7.10;100.00;98911.66;4974849;28;20842;-77
2023/01/09 04:04:24;;;;;;;16.52;8.07;;;;;;;7.06;100.00;98909.09;4973856;28;20664;-77
2023/01/09 04:06:49;;;;;;;11.98;5.70;;;;;;;7.06;100.00;98914.34;4973183;28;20096;-77
2023/01/09 04:09:14;;;;;;;15.38;8.05;;;;;;;7.01;100.00;98910.03;4975189;28;20046;-77
2023/01/09 04:11:40;;;;;;;13.93;7.30;;;;;;;7.02;100.00;98911.78;4975096;28;20101;-77
2023/01/09 04:14:05;;;;;;;14.40;6.85;;;;;;;6.98;100.00;98909.22;4974784;28;20042;-76
2023/01/09 04:16:30;;;;;;;14.55;7.00;;;;;;;7.01;100.00;98912.66;4974163;28;20129;-77
2023/01/09 04:18:56;;;;;;;13.13;6.90;;;;;;;7.07;100.00;98909.06;4973827;28;20047;-77
2023/01/09 04:21:21;;;;;;;13.55;6.60;;;;;;;7.09;100.00;98902.03;4974605;28;20115;-78
2023/01/09 04:23:46;;;;;;;12.68;6.65;;;;;;;7.05;100.00;98895.13;4974587;28;20039;-77
2023/01/09 04:26:12;;;;;;;12.98;6.75;;;;;;;7.05;100.00;98899.47;4974057;28;20027;-79
2023/01/09 04:28:37;;;;;;;14.57;7.00;;;;;;;6.97;100.00;98900.50;4974676;28;20150;-79
2023/01/09 04:31:04;;;;;;;11.75;6.20;;;;;;;6.97;100.00;98887.38;4974293;28;20046;-76
2023/01/09 04:33:29;;;;;;;15.30;7.93;;;;;;;7.01;100.00;98882.94;4973291;28;20039;-76
2023/01/09 04:35:55;;;;;;;12.30;6.00;;;;;;;7.06;100.00;98890.75;4973775;28;20445;-75
2023/01/09 04:38:20;;;;;;;12.63;6.88;;;;;;;7.08;100.00;98883.72;4969844;28;20493;-76
2023/01/09 04:40:47;;;;;;;16.45;8.00;;;;;;;7.13;100.00;98881.88;4973003;28;20045;-77
2023/01/09 04:43:13;;;;;;;14.60;8.63;;;;;;;7.09;100.00;98874.94;4970893;28;20035;-76
2023/01/09 04:45:38;;;;;;;17.20;9.02;;;;;;;7.05;100.00;98878.50;4972037;28;20063;-76
2023/01/09 04:48:04;;;;;;;15.90;9.27;;;;;;;7.01;100.00;98873.31;4975469;28;20038;-77
2023/01/09 04:50:29;;;;;;;25.02;12.77;;;;;;;7.00;100.00;98871.59;4976051;28;20041;-76
2023/01/09 04:52:55;;;;;;;26.60;13.23;;;;;;;7.02;100.00;98864.56;4976708;28;20045;-77
2023/01/09 04:55:21;;;;;;;20.77;10.60;;;;;;;7.00;100.00;98866.34;4958151;28;20500;-77
2023/01/09 04:57:46;;;;;;;14.10;8.55;;;;;;;7.00;100.00;98874.22;4976293;28;20041;-77
2023/01/09 05:00:12;;;;;;;15.23;8.45;;;;;;;7.00;100.00;98873.34;4975955;28;20038;-77
2023/01/09 05:02:37;;;;;;;19.08;9.05;;;;;;;7.00;100.00;98868.97;4976701;28;20043;-77
2023/01/09 05:05:04;;;;;;;17.05;9.25;;;;;;;7.03;100.00;98870.66;4976254;28;20070;-76
2023/01/09 05:07:29;;;;;;;17.20;8.55;;;;;;;7.06;100.00;98867.13;4972142;28;20085;-77
2023/01/09 05:09:54;;;;;;;18.27;10.40;;;;;;;7.00;100.00;98868.97;4976297;28;20043;-77
2023/01/09 05:12:20;;;;;;;15.40;9.40;;;;;;;7.00;100.00;98861.09;4975333;28;20367;-77
2023/01/09 05:14:45;;;;;;;15.65;8.65;;;;;;;7.02;100.00;98872.44;4974597;28;20758;-77
2023/01/09 05:17:10;;;;;;;16.83;9.13;;;;;;;7.01;100.00;98873.31;4975335;28;20031;-76
2023/01/09 05:19:36;;;;;;;15.38;8.60;;;;;;;7.11;100.00;98862.66;4975667;28;20149;-76
2023/01/09 05:22:01;;;;;;;15.63;9.23;;;;;;;7.10;100.00;98868.78;4973757;28;20062;-76
2023/01/09 05:24:26;;;;;;;14.65;8.23;;;;;;;7.10;100.00;98866.16;4973613;28;20035;-77
2023/01/09 05:26:52;;;;;;;15.73;9.45;;;;;;;7.05;100.00;98862.75;4976538;28;20065;-76
2023/01/09 05:29:17;;;;;;;18.90;10.32;;;;;;;7.03;100.00;98865.44;4980192;28;20536;-76
2023/01/09 05:31:42;;;;;;;26.15;13.45;;;;;;;7.07;100.00;98853.97;4974315;28;20035;-77
2023/01/09 05:34:08;;;;;;;17.52;9.60;;;;;;;7.08;100.00;98855.72;4971501;28;20210;-76
2023/01/09 05:36:33;;;;;;;15.05;9.18;;;;;;;7.14;100.00;98841.59;4969060;28;20159;-76
2023/01/09 05:38:59;;;;;;;17.15;8.65;;;;;;;7.18;100.00;98840.66;4970947;28;20042;-76
2023/01/09 05:41:25;;;;;;;17.40;10.05;;;;;;;7.17;100.00;98841.53;4973150;28;20050;-76
2023/01/09 05:43:50;;;;;;;15.05;9.93;;;;;;;7.17;100.00;98844.16;4971867;28;20038;-78
2023/01/09 05:46:16;;;;;;;14.88;9.05;;;;;;;7.18;100.00;98836.28;4976364;28;20416;-76
2023/01/09 05:48:43;;;;;;;16.95;11.00;;;;;;;7.22;100.00;98827.44;4981496;28;20030;-77
2023/01/09 05:51:08;;;;;;;17.95;10.73;;;;;;;7.20;100.00;98828.34;4975790;28;20035;-76
2023/01/09 05:53:34;;;;;;;18.48;11.25;;;;;;;7.10;100.00;98829.44;4970493;28;20122;-77
2023/01/09 05:55:59;;;;;;;17.63;9.43;;;;;;;7.07;100.00;98825.09;4972250;28;20518;-78
2023/01/09 05:58:24;;;;;;;16.70;10.77;;;;;;;7.08;100.00;98826.84;4970723;28;20476;-76
2023/01/09 06:00:52;;;;;;;17.45;10.82;;;;;;;7.05;100.00;98826.03;4971712;28;20493;-76
2023/01/09 06:03:17;;;;;;;18.15;11.05;;;;;;;7.02;100.00;98827.84;4972737;28;20039;-76
2023/01/09 06:05:43;;;;;;;17.60;11.27;;;;;;;7.06;100.00;98827.78;4972163;28;20041;-77
2023/01/09 06:08:08;;;;;;;16.67;11.15;;;;;;;7.06;100.00;98819.91;4995540;23;20046;-78
2023/01/09 06:10:33;;;;;;;16.55;10.98;;;;;;;7.08;100.00;98819.00;4986924;28;20124;-77
2023/01/09 06:12:59;;;;;;;18.95;12.20;;;;;;;7.10;100.00;98816.31;4983335;28;20134;-78
2023/01/09 06:15:24;;;;;;;18.23;11.93;;;;;;;7.14;100.00;98810.13;4984458;28;20034;-78
2023/01/09 06:17:50;;;;;;;18.48;11.60;;;;;;;7.18;100.00;98809.19;4985768;28;20029;-77
2023/01/09 06:20:15;;;;;;;19.90;11.10;;;;;;;7.21;100.00;98806.50;4984558;28;20050;-77
2023/01/09 06:22:41;;;;;;;17.02;12.20;;;;;;;7.20;100.00;98807.38;4987831;28;20524;-77
2023/01/09 06:25:07;;;;;;;17.15;11.35;;;;;;;7.18;100.00;98803.94;4982941;28;20034;-78
2023/01/09 06:27:32;;;;;;;18.40;11.82;;;;;;;7.20;100.00;98807.38;4978915;28;20062;-77
2023/01/09 06:29:58;;;;;;;30.70;17.63;;;;;;;7.23;100.00;98799.44;4982974;28;20039;-78
2023/01/09 06:32:23;;;;;;;25.42;16.77;;;;;;;7.22;100.00;98806.44;4982895;28;20041;-77
2023/01/09 06:34:48;;;;;;;20.05;12.55;;;;;;;7.21;100.00;98803.88;4985915;28;20054;-77
2023/01/09 06:37:14;;;;;;;21.00;13.35;;;;;;;7.18;100.00;98801.31;4978700;28;20039;-77
2023/01/09 06:39:39;;;;;;;19.27;12.27;;;;;;;7.13;100.00;98803.16;4983961;28;20056;-77
2023/01/09 06:42:05;;;;;;;17.20;11.73;;;;;;;7.08;100.00;98815.50;4983553;28;20092;-77
2023/01/09 06:44:31;;;;;;;17.55;11.93;;;;;;;7.00;100.00;98815.66;4983436;28;20034;-77
2023/01/09 06:46:57;;;;;;;17.52;11.60;;;;;;;6.98;100.00;98820.91;4980181;28;20118;-77
2023/01/09 06:49:23;;;;;;;20.35;12.68;;;;;;;6.94;100.00;98818.38;4984083;28;20553;-78
2023/01/09 06:51:50;;;;;;;17.50;11.95;;;;;;;6.94;100.00;98824.50;4984187;28;20105;-77
2023/01/09 06:54:18;;;;;;;26.88;17.00;;;;;;;6.92;100.00;98821.03;4989484;28;20505;-77
2023/01/09 06:56:43;;;;;;;20.45;13.38;;;;;;;6.95;100.00;98820.13;4982859;28;20034;-77
2023/01/09 06:59:09;;;;;;;18.88;12.13;;;;;;;7.01;100.00;98825.22;4981229;28;20453;-77
2023/01/09 07:01:34;;;;;;;17.80;11.38;;;;;;;7.03;100.00;98829.56;4982200;28;20074;-77
2023/01/09 07:04:00;;;;;;;19.35;12.23;;;;;;;7.08;100.00;98833.88;4980443;28;20035;-77
2023/01/09 07:06:25;;;;;;;18.15;11.95;;;;;;;7.10;100.00;98830.31;4984308;28;20037;-77
2023/01/09 07:08:51;;;;;;;18.45;9.43;;;;;;;7.06;100.00;98843.53;4980386;28;20045;-77
2023/01/09 07:11:16;;;;;;;16.40;8.32;;;;;;;6.98;100.00;98841.91;4991661;28;20039;-77
2023/01/09 07:13:41;;;;;;;16.60;8.23;;;;;;;6.94;100.00;98840.25;4987873;28;20079;-77
2023/01/09 07:16:07;;;;;;;14.60;7.80;;;;;;;6.96;100.00;98838.44;4984787;28;20078;-77
2023/01/09 07:18:32;;;;;;;15.40;7.63;;;;;;;6.99;100.00;98835.75;4986876;28;20116;-77
2023/01/09 07:20:57;;;;;;;15.65;8.57;;;;;;;7.00;100.00;98841.88;4988920;28;20485;-78
2023/01/09 07:23:23;;;;;;;13.50;6.85;;;;;;;7.01;100.00;98833.09;4990005;28;20514;-78
2023/01/09 07:25:50;;;;;;;13.73;7.38;;;;;;;6.98;100.00;98834.03;4983340;28;20043;-77
2023/01/09 07:28:15;;;;;;;14.43;6.97;;;;;;;6.99;100.00;98835.75;4986346;28;20044;-77
2023/01/09 07:30:40;;;;;;;16.80;7.20;;;;;;;7.00;100.00;98840.13;4987402;28;20034;-78
2023/01/09 07:33:06;;;;;;;14.32;7.05;;;;;;;6.99;100.00;98843.63;4990182;28;20034;-77
2023/01/09 07:35:31;;;;;;;14.23;6.75;;;;;;;6.93;100.00;98848.97;4986827;28;20039;-77
2023/01/09 07:37:57;;;;;;;15.45;7.82;;;;;;;6.91;100.00;98848.13;4984463;28;20041;-77
2023/01/09 07:40:22;;;;;;;15.85;8.93;;;;;;;6.94;100.00;98841.97;4986365;28;20034;-77
2023/01/09 07:42:48;;;;;;;15.68;8.60;;;;;;;6.86;100.00;98847.34;4983877;28;20050;-78
2023/01/09 07:45:13;;;;;;;18.80;9.40;;;;;;;6.80;100.00;98842.22;4986439;28;20050;-78
2023/01/09 07:47:40;;;;;;;15.07;9.38;;;;;;;6.78;100.00;98841.38;4983521;28;20142;-77
2023/01/09 07:50:07;;;;;;;15.27;8.50;;;;;;;6.79;100.00;98841.38;4985254;28;20402;-77
2023/01/09 07:52:32;;;;;;;16.17;9.57;;;;;;;6.83;100.00;98843.94;4987712;28;20022;-77
2023/01/09 07:54:57;;;;;;;15.02;8.93;;;;;;;6.83;100.00;98846.56;4985338;28;20041;-78
2023/01/09 07:57:23;;;;;;;16.38;9.20;;;;;;;6.85;100.00;98850.88;4985936;28;20039;-78
2023/01/09 07:59:48;;;;;;;13.48;8.20;;;;;;;6.93;100.00;98854.22;4986497;28;20038;-77
2023/01/09 08:02:13;;;;;;;14.27;9.10;;;;;;;6.99;100.00;98855.88;4990604;28;20133;-78
2023/01/09 08:04:39;;;;;;;16.25;9.50;;;;;;;7.07;100.00;98859.22;4982959;28;20074;-77
2023/01/09 08:07:04;;;;;;;16.20;9.18;;;;;;;7.08;100.00;98867.97;4988623;28;20070;-77
2023/01/09 08:09:29;;;;;;;16.77;8.55;;;;;;;7.09;100.00;98867.91;4993180;28;20069;-78
2023/01/09 08:11:56;;;;;;;15.75;8.55;;;;;;;7.04;100.00;98877.63;4987036;28;20026;-78
2023/01/09 08:14:21;;;;;;;17.60;9.35;;;;;;;7.01;100.00;98869.81;4991222;28;20046;-77
2023/01/09 08:16:46;;;;;;;14.23;7.50;;;;;;;7.03;100.00;98871.53;4985293;28;20038;-77
2023/01/09 08:19:12;;;;;;;17.33;7.75;;;;;;;7.06;100.00;98864.50;4984861;28;20042;-77
2023/01/09 08:21:38;;;;;;;13.57;7.72;;;;;;;7.00;100.00;98863.72;4983306;28;20030;-77
2023/01/09 08:24:04;;;;;;;18.50;9.00;;;;;;;6.96;100.00;98877.78;4986375;28;20117;-77
2023/01/09 08:26:29;;;;;;;12.73;7.72;;;;;;;7.03;100.00;98860.19;4982024;28;20133;-78
2023/01/09 08:28:54;;;;;;;15.13;7.03;;;;;;;7.05;100.00;98868.00;4988861;28;20042;-77
2023/01/09 08:31:20;;;;;;;15.05;7.65;;;;;;;7.08;100.00;98870.59;4986333;28;20457;-77
2023/01/09 08:33:45;;;;;;;10.48;5.38;;;;;;;7.09;100.00;98874.94;4986851;28;20536;-77
2023/01/09 08:36:10;;;;;;;12.75;6.63;;;;;;;7.16;100.00;98881.81;4981537;28;20038;-77
2023/01/09 08:38:36;;;;;;;10.85;5.85;;;;;;;7.29;100.00;98878.06;4986191;28;20097;-77
2023/01/09 08:47:04;;;;;;;7.30;3.03;;;;;;;7.36;100.00;98879.69;4987362;28;20656;-77
2023/01/09 08:49:14;;;;;;;8.15;3.17;;;;;;;7.60;100.00;98878.31;4985670;28;20490;-77
2023/01/09 08:51:39;;;;;;;6.05;2.90;;;;;;;7.62;100.00;98878.25;5000690;28;20042;-77
2023/01/09 08:54:05;;;;;;;9.18;2.92;;;;;;;7.69;100.00;98893.84;4987076;28;20038;-77
2023/01/09 08:56:30;;;;;;;8.55;4.25;;;;;;;7.71;100.00;98890.34;4988102;28;20118;-77
2023/01/09 08:58:55;;;;;;;7.82;3.45;;;;;;;7.74;100.00;98901.66;4982238;28;20065;-77
2023/01/09 09:01:20;;;;;;;7.00;3.45;;;;;;;7.78;100.00;98898.06;4985328;28;20042;-78
2023/01/09 09:03:46;;;;;;;5.47;2.72;;;;;;;7.79;100.00;98905.03;5000066;28;20093;-77
2023/01/09 09:06:11;;;;;;;9.32;5.07;;;;;;;7.78;100.00;98892.81;4982326;28;20035;-78
2023/01/09 09:08:37;;;;;;;6.80;3.38;;;;;;;7.81;100.00;98897.16;4986753;28;20041;-78
2023/01/09 09:11:02;;;;;;;7.15;3.55;;;;;;;7.87;100.00;98908.38;4987283;28;20390;-77
2023/01/09 09:13:28;;;;;;;7.20;3.80;;;;;;;7.98;100.00;98904.66;4984372;28;20041;-77
2023/01/09 09:15:53;;;;;;;7.38;3.20;;;;;;;8.04;100.00;98909.75;4980612;28;20065;-77
2023/01/09 09:18:18;;;;;;;6.65;3.78;;;;;;;8.15;100.00;98910.41;4987368;28;20073;-78
2023/01/09 09:20:44;;;;;;;14.13;5.93;;;;;;;8.24;100.00;98911.97;5006720;28;20069;-77
2023/01/09 09:23:09;;;;;;;10.73;5.20;;;;;;;8.31;100.00;98906.53;4983644;28;20046;-78
2023/01/09 09:25:37;;;;;;;9.15;4.60;;;;;;;8.40;100.00;98907.25;4984462;28;20147;-77
2023/01/09 09:28:02;;;;;;;5.93;3.05;;;;;;;8.42;100.00;98919.47;5001347;28;20129;-77
2023/01/09 09:30:28;;;;;;;5.07;2.83;;;;;;;8.51;100.00;98921.91;4985594;28;20126;-78
2023/01/09 09:32:53;;;;;;;14.02;5.28;;;;;;;8.63;100.00;98918.09;4987859;28;20050;-78
2023/01/09 09:35:19;;;;;;;6.72;2.28;;;;;;;8.64;100.00;98927.69;4987633;28;20042;-78
2023/01/09 09:38:00;;;;;;;4.82;2.15;;;;;;;8.65;100.00;98931.22;4984688;28;20038;-78
2023/01/09 09:40:59;;;;;;;6.40;2.75;;;;;;;8.64;100.00;98927.69;4984384;28;20134;-77
2023/01/09 09:46:53;;;;;;;1.42;1.02;;;;;;;8.75;100.00;98941.47;4984305;28;20042;-78
2023/01/09 09:49:38;;;;;;;1.83;1.00;;;;;;;8.82;100.00;98943.94;4982602;28;20042;-78
2023/01/09 09:52:28;;;;;;;1.45;0.77;;;;;;;8.87;100.00;98944.69;4984472;28;20046;-77
2023/01/09 09:54:57;;;;;;;2.42;0.80;;;;;;;8.92;100.00;98950.72;4983842;28;20035;-77
2023/01/09 09:57:33;;;;;;;1.35;0.60;;;;;;;9.05;100.00;98951.28;4984758;28;20031;-78
2023/01/09 09:59:58;;;;;;;2.20;0.55;;;;;;;9.08;100.00;98952.06;4985391;28;20038;-78
2023/01/09 10:02:31;;;;;;;1.40;0.70;;;;;;;9.14;100.00;98943.13;4984562;28;20039;-78
2023/01/09 10:05:04;;;;;;;3.35;1.27;;;;;;;9.25;100.00;98948.13;4984617;28;20522;-78
2023/01/09 10:07:40;;;;;;;1.40;0.73;;;;;;;9.24;100.00;98957.78;4985733;28;20084;-77
2023/01/09 10:10:17;;;;;;;1.55;0.57;;;;;;;9.28;100.00;98948.91;4982330;28;20128;-78
2023/01/09 10:12:52;;;;;;;2.13;0.70;;;;;;;9.34;100.00;98956.66;4980970;28;20037;-77
2023/01/09 10:15:40;;;;;;;2.58;0.73;;;;;;;9.34;98.55;98966.31;4984890;28;20110;-78
2023/01/09 10:18:31;;;;;;;1.33;0.65;;;;;;;9.43;98.76;98966.06;4981724;28;20540;-77
2023/01/09 10:21:24;;;;;;;4.63;1.05;;;;;;;9.47;100.00;98961.59;4983798;28;20056;-77
2023/01/09 10:24:05;;;;;;;1.60;0.63;;;;;;;9.45;98.60;98972.16;4984500;28;20043;-78
2023/01/09 10:26:45;;;;;;;2.65;1.30;;;;;;;9.40;99.05;98981.94;4986961;28;20038;-78
2023/01/09 10:29:29;;;;;;;4.20;0.82;;;;;;;9.43;99.63;98976.59;4987168;28;20066;-77
2023/01/09 10:32:26;;;;;;;0.60;0.30;;;;;;;9.49;97.67;98978.22;4984044;28;20421;-77
2023/01/09 10:35:09;;;;;;;3.42;0.65;;;;;;;9.40;98.44;98974.91;4982620;28;20073;-77
2023/01/09 10:37:44;;;;;;;2.33;0.85;;;;;;;9.44;98.20;98988.88;4980550;28;20478;-77
2023/01/09 10:40:24;;;;;;;2.42;0.90;;;;;;;9.40;98.46;98987.22;4982943;28;20034;-77
2023/01/09 10:42:52;;;;;;;1.48;0.95;;;;;;;9.40;97.77;98990.69;4983576;28;20043;-78
2023/01/09 10:45:42;;;;;;;0.63;0.25;;;;;;;9.52;98.73;99001.84;4982419;28;20042;-78
2023/01/09 10:48:19;;;;;;;1.38;0.50;;;;;;;9.52;98.42;99007.13;4983333;28;20039;-77
2023/01/09 10:50:48;;;;;;;1.25;0.38;;;;;;;9.52;96.51;99005.34;4982128;28;20094;-77
2023/01/09 10:53:20;;;;;;;1.77;0.50;;;;;;;9.48;97.44;99016.84;4983746;28;20085;-78
2023/01/09 10:55:47;;;;;;;1.92;0.52;;;;;;;9.49;96.02;99026.50;4985066;28;20456;-77
2023/01/09 10:58:16;;;;;;;2.47;0.88;;;;;;;9.41;97.19;99017.94;4982878;28;20027;-78
2023/01/09 11:00:42;;;;;;;1.80;0.70;;;;;;;9.47;96.46;99015.13;4981366;28;20070;-78
2023/01/09 11:03:16;;;;;;;2.03;0.47;;;;;;;9.49;96.79;99013.31;4988485;28;20134;-77
2023/01/09 11:05:51;;;;;;;2.53;0.93;;;;;;;9.46;94.63;99023.94;4981694;28;20046;-78
2023/01/09 11:08:39;;;;;;;0.80;0.22;;;;;;;9.44;96.93;99025.75;4990325;28;20034;-77
2023/01/09 11:11:04;;;;;;;1.55;0.77;;;;;;;9.50;95.53;99030.84;4983471;28;20077;-77
2023/01/09 11:13:32;;;;;;;1.13;0.30;;;;;;;9.51;95.57;99040.50;4982425;28;20100;-77
2023/01/09 11:16:09;;;;;;;1.75;0.57;;;;;;;9.49;95.57;99044.94;4980517;28;20138;-77
2023/01/09 11:18:47;;;;;;;3.58;0.60;;;;;;;9.46;96.51;99039.75;4988944;28;20061;-77
2023/01/09 11:21:36;;;;;;;2.20;0.55;;;;;;;9.53;95.60;99043.06;4983152;28;20385;-76
2023/01/09 11:24:31;;;;;;;1.52;0.38;;;;;;;9.54;96.71;99037.78;4993067;28;20089;-77
2023/01/09 11:27:22;;;;;;;1.35;0.50;;;;;;;9.57;95.76;99035.06;4999234;28;20049;-77
2023/01/09 11:30:04;;;;;;;0.52;0.30;;;;;;;9.51;94.28;99036.97;4996856;28;20043;-77
2023/01/09 11:32:30;;;;;;;1.23;0.40;;;;;;;9.48;95.10;99043.19;5000350;28;20041;-77
2023/01/09 11:34:56;;;;;;;1.85;0.60;;;;;;;9.40;93.60;99045.16;5001328;28;20033;-77
2023/01/09 11:37:28;;;;;;;1.92;0.30;;;;;;;9.42;93.84;99045.97;4994450;28;20042;-78
2023/01/09 11:39:55;;;;;;;0.70;0.40;;;;;;;9.40;93.94;99053.03;4998840;28;20026;-77
2023/01/09 11:45:19;;;;;;;0.40;0.20;;;;;;;9.51;93.50;99051.03;4998077;28;20042;-77
2023/01/09 11:47:45;;;;;;;0.95;0.38;;;;;;;9.57;93.58;99053.50;4999324;28;20026;-77
2023/01/09 11:50:17;;;;;;;0.10;0.10;;;;;;;9.59;92.31;99058.72;4995333;28;20041;-77
2023/01/09 11:52:43;;;;;;;1.83;0.47;;;;;;;9.53;93.43;99053.59;4983273;28;20076;-77